createdAt,value
2022-10-14T00:01:27.963Z,97132.31
2022-10-14T00:03:56.575Z,97132.00
2022-10-14T00:06:28.540Z,97134.72
2022-10-14T00:08:57.882Z,97133.94
2022-10-14T00:11:29.705Z,97134.25
2022-10-14T00:14:01.044Z,97137.47
2022-10-14T00:16:35.426Z,97135.25
2022-10-14T00:19:04.938Z,97132.00
2022-10-14T00:21:34.692Z,97132.00
2022-10-14T00:24:03.353Z,97137.47
2022-10-14T00:26:35.081Z,97134.13
2022-10-14T00:29:06.606Z,97141.50
2022-10-14T00:31:37.246Z,97130.22
2022-10-14T00:34:05.997Z,97143.13
2022-10-14T00:36:35.171Z,97138.75
2022-10-14T00:39:03.827Z,97142.66
2022-10-14T00:41:36.235Z,97143.63
2022-10-14T00:44:07.505Z,97138.47
2022-10-14T00:46:41.045Z,97140.41
2022-10-14T00:49:14.510Z,97138.31
2022-10-14T00:51:46.664Z,97140.72
2022-10-14T00:54:18.727Z,97134.44
2022-10-14T00:56:49.278Z,97139.13
2022-10-14T00:59:18.873Z,97141.34
2022-10-14T01:01:48.692Z,97144.75
2022-10-14T01:04:18.536Z,97136.69
2022-10-14T01:07:03.440Z,97137.00
2022-10-14T01:09:36.408Z,97137.19
2022-10-14T01:12:35.351Z,97129.13
2022-10-14T01:15:18.038Z,97132.53
2022-10-14T01:18:02.832Z,97132.06
2022-10-14T01:20:46.531Z,97130.91
2022-10-14T01:23:39.836Z,97136.84
2022-10-14T01:26:30.323Z,97125.75
2022-10-14T01:29:21.591Z,97131.88
2022-10-14T01:32:01.192Z,97128.97
2022-10-14T01:34:44.036Z,97124.63
2022-10-14T01:37:20.370Z,97137.19
2022-10-14T01:39:56.371Z,97134.13
2022-10-14T01:42:27.520Z,97134.28
2022-10-14T01:45:02.534Z,97132.69
2022-10-14T01:47:36.667Z,97139.44
2022-10-14T01:50:13.863Z,97132.69
2022-10-14T01:52:48.520Z,97133.34
2022-10-14T01:55:22.216Z,97131.06
2022-10-14T01:57:54.607Z,97130.09
2022-10-14T02:00:23.436Z,97133.34
2022-10-14T02:02:53.088Z,97128.66
2022-10-14T02:05:30.279Z,97130.44
2022-10-14T02:08:08.554Z,97131.38
2022-10-14T02:11:02.196Z,97135.09
2022-10-14T02:13:57.686Z,97125.44
2022-10-14T02:16:39.090Z,97125.91
2022-10-14T02:19:27.208Z,97112.41
2022-10-14T02:22:02.966Z,97118.19
2022-10-14T02:24:37.730Z,97123.16
2022-10-14T02:27:12.081Z,97117.69
2022-10-14T02:29:45.860Z,97115.13
2022-10-14T02:32:20.319Z,97118.69
2022-10-14T02:34:58.021Z,97124.31
2022-10-14T02:37:28.826Z,97117.38
2022-10-14T02:40:06.107Z,97129.31
2022-10-14T02:42:35.003Z,97124.47
2022-10-14T02:45:07.660Z,97129.97
2022-10-14T02:47:36.350Z,97121.25
2022-10-14T02:50:07.060Z,97119.97
2022-10-14T02:52:35.565Z,97116.09
2022-10-14T02:55:03.990Z,97109.84
2022-10-14T02:57:32.298Z,97103.88
2022-10-14T03:00:00.559Z,97114.81
2022-10-14T03:02:29.660Z,97106.16
2022-10-14T03:05:00.040Z,97106.78
2022-10-14T03:07:31.683Z,97105.03
2022-10-14T03:10:04.907Z,97103.72
2022-10-14T03:12:36.866Z,97102.94
2022-10-14T03:15:07.175Z,97101.31
2022-10-14T03:17:36.651Z,97105.50
2022-10-14T03:20:08.472Z,97107.75
2022-10-14T03:22:46.240Z,97105.00
2022-10-14T03:25:15.133Z,97111.63
2022-10-14T03:27:57.584Z,97101.34
2022-10-14T03:30:38.449Z,97116.47
2022-10-14T03:33:15.104Z,97098.91
2022-10-14T03:36:02.890Z,97106.16
2022-10-14T03:38:45.352Z,97106.47
2022-10-14T03:41:23.712Z,97100.22
2022-10-14T03:43:53.945Z,97096.97
2022-10-14T03:46:22.730Z,97099.41
2022-10-14T03:48:53.886Z,97095.69
2022-10-14T03:51:22.644Z,97097.78
2022-10-14T03:53:52.413Z,97100.19
2022-10-14T03:56:29.197Z,97088.63
2022-10-14T03:58:57.590Z,97093.63
2022-10-14T04:01:27.125Z,97082.81
2022-10-14T04:04:16.125Z,97077.34
2022-10-14T04:06:44.805Z,97070.25
2022-10-14T04:09:15.037Z,97068.31
2022-10-14T04:11:44.053Z,97068.31
2022-10-14T04:14:29.681Z,97060.13
2022-10-14T04:16:59.422Z,97055.94
2022-10-14T04:19:29.362Z,97065.75
2022-10-14T04:21:58.050Z,97062.19
2022-10-14T04:24:30.556Z,97066.19
2022-10-14T04:27:00.944Z,97065.88
2022-10-14T04:29:53.823Z,97060.22
2022-10-14T04:32:29.859Z,97054.94
2022-10-14T04:34:58.774Z,97051.56
2022-10-14T04:37:32.028Z,97056.69
2022-10-14T04:40:25.630Z,97052.69
2022-10-14T04:42:59.222Z,97052.34
2022-10-14T04:45:33.760Z,97059.44
2022-10-14T04:48:05.526Z,97058.31
2022-10-14T04:50:39.719Z,97054.09
2022-10-14T04:53:27.971Z,97060.56
2022-10-14T04:56:14.609Z,97069.88
2022-10-14T04:58:53.965Z,97058.47
2022-10-14T05:01:26.589Z,97061.84
2022-10-14T05:03:59.346Z,97048.50
2022-10-14T05:06:27.998Z,97055.72
2022-10-14T05:08:57.816Z,97053.47
2022-10-14T05:11:29.906Z,97060.09
2022-10-14T05:14:00.042Z,97047.03
2022-10-14T05:16:31.373Z,97043.16
2022-10-14T05:18:59.764Z,97048.81
2022-10-14T05:21:29.679Z,97049.94
2022-10-14T05:24:11.195Z,97041.56
2022-10-14T05:26:43.420Z,97049.94
2022-10-14T05:29:15.008Z,97046.41
2022-10-14T05:31:45.188Z,97042.03
2022-10-14T05:34:27.173Z,97041.56
2022-10-14T05:36:57.699Z,97035.59
2022-10-14T05:39:27.221Z,97039.50
2022-10-14T05:41:59.046Z,97041.25
2022-10-14T05:44:30.622Z,97040.47
2022-10-14T05:47:00.438Z,97036.94
2022-10-14T05:49:29.296Z,97041.91
2022-10-14T05:51:59.883Z,97034.03
2022-10-14T05:54:28.739Z,97045.47
2022-10-14T05:57:00.297Z,97042.88
2022-10-14T05:59:30.266Z,97035.78
2022-10-14T06:01:59.713Z,97041.25
2022-10-14T06:04:29.022Z,97034.19
2022-10-14T06:06:59.689Z,97035.16
2022-10-14T06:09:28.392Z,97036.28
2022-10-14T06:11:56.727Z,97038.22
2022-10-14T06:14:26.555Z,97036.63
2022-10-14T06:16:55.755Z,97037.06
2022-10-14T06:19:25.649Z,97041.09
2022-10-14T06:21:54.448Z,97041.09
2022-10-14T06:24:23.060Z,97050.44
2022-10-14T06:26:51.784Z,97044.03
2022-10-14T06:29:20.374Z,97048.38
2022-10-14T06:31:50.279Z,97051.56
2022-10-14T06:34:22.707Z,97049.13
2022-10-14T06:36:51.090Z,97046.22
2022-10-14T06:39:19.788Z,97047.59
2022-10-14T06:41:48.401Z,97043.56
2022-10-14T06:44:21.098Z,97042.16
2022-10-14T06:46:50.856Z,97045.56
2022-10-14T06:49:19.347Z,97045.22
2022-10-14T06:51:47.692Z,97042.88
2022-10-14T06:54:17.446Z,97046.47
2022-10-14T06:56:46.119Z,97047.75
2022-10-14T06:59:14.726Z,97036.75
2022-10-14T07:01:43.407Z,97045.47
2022-10-14T07:04:13.403Z,97038.94
2022-10-14T07:06:41.853Z,97041.97
2022-10-14T07:09:10.418Z,97041.75
2022-10-14T07:11:39.053Z,97036.69
2022-10-14T07:14:07.374Z,97029.38
2022-10-14T07:16:35.804Z,97021.47
2022-10-14T07:19:04.568Z,97022.50
2022-10-14T07:21:34.313Z,97014.84
2022-10-14T07:24:03.052Z,97025.94
2022-10-14T07:26:32.139Z,97021.81
2022-10-14T07:29:01.236Z,97028.69
2022-10-14T07:31:30.021Z,97027.53
2022-10-14T07:33:58.729Z,97020.34
2022-10-14T07:36:27.419Z,97028.47
2022-10-14T07:38:57.293Z,97025.84
2022-10-14T07:41:26.778Z,97028.84
2022-10-14T07:44:01.921Z,97030.09
2022-10-14T07:46:32.419Z,97020.03
2022-10-14T07:49:08.505Z,97021.75
2022-10-14T07:51:37.648Z,97039.13
2022-10-14T07:54:10.434Z,97035.84
2022-10-14T07:56:39.623Z,97040.19
2022-10-14T07:59:08.303Z,97037.19
2022-10-14T08:01:37.454Z,97041.66
2022-10-14T08:04:06.383Z,97050.09
2022-10-14T08:06:35.049Z,97052.31
2022-10-14T08:09:07.593Z,97047.81
2022-10-14T08:11:37.594Z,97049.09
2022-10-14T08:14:06.747Z,97053.34
2022-10-14T08:16:37.237Z,97042.91
2022-10-14T08:19:13.497Z,97043.13
2022-10-14T08:21:43.787Z,97044.94
2022-10-14T08:24:13.765Z,97040.09
2022-10-14T08:26:50.955Z,97048.19
2022-10-14T08:29:19.332Z,97047.72
2022-10-14T08:31:47.940Z,97044.78
2022-10-14T08:34:16.471Z,97038.50
2022-10-14T08:36:45.189Z,97044.47
2022-10-14T08:39:15.102Z,97034.34
2022-10-14T08:42:05.776Z,97048.59
2022-10-14T08:44:46.698Z,97041.03
2022-10-14T08:47:18.051Z,97043.25
2022-10-14T08:50:01.591Z,97042.28
2022-10-14T08:52:37.889Z,97042.38
2022-10-14T08:55:24.546Z,97031.91
2022-10-14T08:57:58.785Z,97025.41
2022-10-14T09:00:29.389Z,97029.31
2022-10-14T09:03:01.129Z,97032.50
2022-10-14T09:05:29.999Z,97036.63
2022-10-14T09:07:59.623Z,97036.91
2022-10-14T09:10:36.013Z,97033.25
2022-10-14T09:13:12.998Z,97033.38
2022-10-14T09:15:44.859Z,97040.31
2022-10-14T09:18:25.311Z,97034.91
2022-10-14T09:20:54.772Z,97029.16
2022-10-14T09:23:25.347Z,97028.16
2022-10-14T09:25:59.580Z,97024.41
2022-10-14T09:28:38.277Z,97024.56
2022-10-14T09:31:09.246Z,97024.31
2022-10-14T09:33:42.309Z,97018.16
2022-10-14T09:36:19.329Z,97021.88
2022-10-14T09:38:51.634Z,97018.53
2022-10-14T09:41:29.105Z,97017.94
2022-10-14T09:44:25.486Z,97013.91
2022-10-14T09:46:57.899Z,97014.22
2022-10-14T09:49:39.117Z,97005.53
2022-10-14T09:52:09.233Z,96998.47
2022-10-14T09:54:37.977Z,97011.28
2022-10-14T09:57:18.173Z,97011.59
2022-10-14T09:59:56.109Z,97010.69
2022-10-14T10:02:35.973Z,97009.81
2022-10-14T10:05:14.864Z,97014.75
2022-10-14T10:07:43.532Z,97007.72
2022-10-14T10:10:22.008Z,97004.16
2022-10-14T10:12:51.785Z,97005.25
2022-10-14T10:15:22.564Z,96996.56
2022-10-14T10:17:52.193Z,96998.28
2022-10-14T10:20:28.582Z,97000.38
2022-10-14T10:22:58.189Z,97001.50
2022-10-14T10:25:28.578Z,96994.47
2022-10-14T10:28:00.918Z,97001.22
2022-10-14T10:30:34.000Z,96991.81
2022-10-14T10:33:23.465Z,96984.06
2022-10-14T10:36:02.456Z,96983.06
2022-10-14T10:38:38.688Z,96981.63
2022-10-14T10:41:23.647Z,96975.09
2022-10-14T10:44:12.756Z,96973.47
2022-10-14T10:47:07.814Z,96975.03
2022-10-14T10:50:10.044Z,96967.06
2022-10-14T10:52:54.213Z,96952.63
2022-10-14T10:55:32.327Z,96950.03
2022-10-14T10:58:12.511Z,96939.19
2022-10-14T11:00:58.109Z,96941.31
2022-10-14T11:03:52.363Z,96936.34
2022-10-14T11:06:47.889Z,96926.19
2022-10-14T11:09:47.864Z,96929.75
2022-10-14T11:12:27.518Z,96925.38
2022-10-14T11:15:31.205Z,96916.16
2022-10-14T11:18:04.861Z,96908.69
2022-10-14T11:20:49.738Z,96914.25
2022-10-14T11:23:49.291Z,96904.75
2022-10-14T11:26:41.528Z,96899.06
2022-10-14T11:29:29.424Z,96894.06
2022-10-14T11:32:11.217Z,96894.09
2022-10-14T11:34:49.040Z,96888.91
2022-10-14T11:37:33.297Z,96880.94
2022-10-14T11:40:15.906Z,96868.44
2022-10-14T11:43:02.851Z,96865.69
2022-10-14T11:45:43.781Z,96873.63
2022-10-14T11:48:28.905Z,96862.03
2022-10-14T11:51:14.792Z,96864.72
2022-10-14T11:54:01.004Z,96866.78
2022-10-14T11:56:49.612Z,96864.41
2022-10-14T11:59:40.404Z,96872.88
2022-10-14T12:02:27.458Z,96869.63
2022-10-14T12:05:03.611Z,96868.88
2022-10-14T12:07:40.407Z,96870.28
2022-10-14T12:10:25.743Z,96863.50
2022-10-14T12:12:56.721Z,96862.81
2022-10-14T12:15:28.086Z,96861.53
2022-10-14T12:18:00.799Z,96851.91
2022-10-14T12:20:40.136Z,96840.53
2022-10-14T12:23:16.884Z,96839.66
2022-10-14T12:25:56.871Z,96834.19
2022-10-14T12:28:25.811Z,96824.81
2022-10-14T12:31:14.497Z,96816.78
2022-10-14T12:34:18.990Z,96817.97
2022-10-14T12:36:50.778Z,96814.03
2022-10-14T12:39:43.497Z,96815.31
2022-10-14T12:42:15.923Z,96816.69
2022-10-14T12:44:51.911Z,96810.34
2022-10-14T12:47:23.529Z,96813.69
2022-10-14T12:49:56.255Z,96814.31
2022-10-14T12:52:30.780Z,96821.00
2022-10-14T12:55:05.138Z,96806.53
2022-10-14T12:57:38.699Z,96809.25
2022-10-14T13:00:33.326Z,96808.34
2022-10-14T13:03:04.413Z,96798.41
2022-10-14T13:05:36.834Z,96791.53
2022-10-14T13:08:15.494Z,96786.75
2022-10-14T13:10:48.391Z,96798.31
2022-10-14T13:13:52.889Z,96796.66
2022-10-14T13:17:00.435Z,96791.00
2022-10-14T13:19:44.572Z,96792.88
2022-10-14T13:22:41.783Z,96778.66
2022-10-14T13:25:29.589Z,96778.28
2022-10-14T13:28:25.665Z,96780.81
2022-10-14T13:31:06.242Z,96785.25
2022-10-14T13:33:41.886Z,96783.50
2022-10-14T13:36:19.870Z,96786.47
2022-10-14T13:38:55.418Z,96777.72
2022-10-14T13:41:30.737Z,96774.06
2022-10-14T13:44:02.673Z,96772.75
2022-10-14T13:46:36.535Z,96771.16
2022-10-14T13:51:52.830Z,96771.53
2022-10-14T13:54:24.216Z,96756.75
2022-10-14T13:57:38.735Z,96757.88
2022-10-14T14:02:53.828Z,96761.44
2022-10-14T14:05:28.057Z,96757.88
2022-10-14T14:08:31.697Z,96753.56
2022-10-14T14:11:15.177Z,96747.34
2022-10-14T14:13:58.934Z,96749.94
2022-10-14T14:16:34.988Z,96750.34
2022-10-14T14:19:09.563Z,96754.69
2022-10-14T14:21:39.075Z,96744.34
2022-10-14T14:24:19.884Z,96752.19
2022-10-14T14:26:56.585Z,96750.44
2022-10-14T14:29:29.974Z,96746.44
2022-10-14T14:32:07.075Z,96751.56
2022-10-14T14:34:38.629Z,96747.53
2022-10-14T14:37:43.548Z,96746.53
2022-10-14T14:39:59.886Z,96746.78
2022-10-14T14:42:31.715Z,96750.19
2022-10-14T14:45:06.398Z,96744.50
2022-10-14T14:47:36.307Z,96749.22
2022-10-14T14:50:29.077Z,96743.38
2022-10-14T14:53:02.082Z,96742.63
2022-10-14T14:55:44.939Z,96741.91
2022-10-14T14:58:28.629Z,96740.66
2022-10-14T15:00:57.870Z,96742.22
2022-10-14T15:03:31.200Z,96733.81
2022-10-14T15:06:03.439Z,96741.25
2022-10-14T15:08:35.021Z,96734.84
2022-10-14T15:11:03.802Z,96744.53
2022-10-14T15:13:46.484Z,96729.53
2022-10-14T15:16:15.251Z,96728.81
2022-10-14T15:18:44.945Z,96729.19
2022-10-14T15:21:19.818Z,96727.56
2022-10-14T15:24:03.202Z,96717.13
2022-10-14T15:26:36.231Z,96714.78
2022-10-14T15:29:18.777Z,96711.78
2022-10-14T15:32:03.659Z,96707.00
2022-10-14T15:34:35.679Z,96709.75
2022-10-14T15:37:04.355Z,96707.94
2022-10-14T15:39:33.035Z,96709.88
2022-10-14T15:42:01.723Z,96705.28
2022-10-14T15:44:33.209Z,96696.94
2022-10-14T15:47:19.260Z,96702.09
2022-10-14T15:49:50.838Z,96702.66
2022-10-14T15:52:22.983Z,96702.00
2022-10-14T15:54:54.822Z,96701.22
2022-10-14T15:57:23.812Z,96690.75
2022-10-14T15:59:53.725Z,96708.59
2022-10-14T16:02:33.776Z,96706.13
2022-10-14T16:05:20.892Z,96699.56
2022-10-14T16:07:50.704Z,96699.38
2022-10-14T16:10:21.920Z,96701.63
2022-10-14T16:12:51.001Z,96707.00
2022-10-14T16:15:33.335Z,96698.13
2022-10-14T16:18:01.905Z,96702.78
2022-10-14T16:20:32.172Z,96703.34
2022-10-14T16:23:04.272Z,96703.66
2022-10-14T16:25:39.340Z,96689.94
2022-10-14T16:28:10.270Z,96683.50
2022-10-14T16:30:41.521Z,96700.31
2022-10-14T16:35:50.338Z,96704.34
2022-10-14T16:38:18.956Z,96700.75
2022-10-14T16:40:54.334Z,96702.19
2022-10-14T16:43:22.764Z,96698.28
2022-10-14T16:45:51.378Z,96705.78
2022-10-14T16:48:20.053Z,96698.19
2022-10-14T16:50:53.540Z,96707.25
2022-10-14T16:53:44.637Z,96706.28
2022-10-14T16:56:37.070Z,96703.13
2022-10-14T16:59:07.689Z,96717.66
2022-10-14T17:01:37.275Z,96722.38
2022-10-14T17:04:14.912Z,96715.28
2022-10-14T17:06:44.610Z,96721.19
2022-10-14T17:09:14.051Z,96715.78
2022-10-14T17:11:43.096Z,96712.66
2022-10-14T17:14:15.408Z,96710.72
2022-10-14T17:16:44.278Z,96714.91
2022-10-14T17:19:12.922Z,96713.94
2022-10-14T17:21:41.561Z,96710.03
2022-10-14T17:24:13.045Z,96708.44
2022-10-14T17:26:41.687Z,96714.94
2022-10-14T17:29:10.285Z,96707.94
2022-10-14T17:31:38.966Z,96712.38
2022-10-14T17:34:10.807Z,96712.25
2022-10-14T17:36:40.189Z,96708.00
2022-10-14T17:39:16.358Z,96711.13
2022-10-14T17:41:51.083Z,96716.69
2022-10-14T17:44:20.179Z,96715.00
2022-10-14T17:46:48.794Z,96707.94
2022-10-14T17:49:17.419Z,96710.34
2022-10-14T17:51:46.019Z,96716.34
2022-10-14T17:54:14.642Z,96701.25
2022-10-14T17:56:43.454Z,96714.50
2022-10-14T17:59:14.387Z,96709.78
2022-10-14T18:02:01.476Z,96713.25
2022-10-14T18:04:32.513Z,96716.72
2022-10-14T18:07:01.544Z,96715.94
2022-10-14T18:09:30.231Z,96709.47
2022-10-14T18:12:14.244Z,96712.22
2022-10-14T18:14:44.505Z,96711.34
2022-10-14T18:17:14.250Z,96705.91
2022-10-14T18:19:45.048Z,96710.06
2022-10-14T18:22:16.977Z,96715.16
2022-10-14T18:24:45.879Z,96704.84
2022-10-14T18:27:14.521Z,96707.59
2022-10-14T18:29:44.208Z,96704.06
2022-10-14T18:32:12.878Z,96702.38
2022-10-14T18:34:41.549Z,96696.69
2022-10-14T18:37:10.235Z,96692.38
2022-10-14T18:39:38.915Z,96700.78
2022-10-14T18:42:07.704Z,96693.66
2022-10-14T18:44:36.326Z,96703.53
2022-10-14T18:47:06.898Z,96693.59
2022-10-14T18:49:39.903Z,96694.28
2022-10-14T18:52:09.682Z,96693.50
2022-10-14T18:54:38.118Z,96690.03
2022-10-14T18:57:06.460Z,96686.59
2022-10-14T18:59:35.880Z,96686.88
2022-10-14T19:02:06.649Z,96681.72
2022-10-14T19:04:35.438Z,96688.78
2022-10-14T19:07:04.283Z,96682.84
2022-10-14T19:09:34.448Z,96693.06
2022-10-14T19:12:24.099Z,96685.53
2022-10-14T19:14:53.111Z,96680.75
2022-10-14T19:17:23.277Z,96672.50
2022-10-14T19:19:51.609Z,96672.75
2022-10-14T19:22:20.434Z,96665.94
2022-10-14T19:24:49.177Z,96669.72
2022-10-14T19:27:17.868Z,96678.59
2022-10-14T19:29:46.491Z,96675.41
2022-10-14T19:32:14.832Z,96675.31
2022-10-14T19:34:47.479Z,96673.56
2022-10-14T19:37:15.964Z,96676.19
2022-10-14T19:39:44.372Z,96674.53
2022-10-14T19:42:12.776Z,96666.53
2022-10-14T19:44:41.521Z,96657.56
2022-10-14T19:47:10.214Z,96650.94
2022-10-14T19:49:38.916Z,96649.78
2022-10-14T19:52:09.027Z,96653.34
2022-10-14T19:54:37.600Z,96659.53
2022-10-14T19:57:06.300Z,96650.84
2022-10-14T19:59:34.940Z,96655.53
2022-10-14T20:02:03.290Z,96651.28
2022-10-14T20:04:31.712Z,96650.59
2022-10-14T20:07:00.396Z,96650.50
2022-10-14T20:09:30.167Z,96651.22
2022-10-14T20:11:58.882Z,96647.19
2022-10-14T20:14:27.989Z,96649.50
2022-10-14T20:16:56.625Z,96641.97
2022-10-14T20:19:25.330Z,96641.09
2022-10-14T20:21:53.980Z,96637.63
2022-10-14T20:24:22.602Z,96633.38
2022-10-14T20:26:52.576Z,96627.81
2022-10-14T20:29:21.199Z,96628.16
2022-10-14T20:31:49.874Z,96631.59
2022-10-14T20:34:18.458Z,96623.38
2022-10-14T20:36:47.117Z,96631.16
2022-10-14T20:39:15.693Z,96624.69
2022-10-14T20:41:44.429Z,96618.50
2022-10-14T20:44:14.446Z,96624.69
2022-10-14T20:46:43.097Z,96615.84
2022-10-14T20:49:12.267Z,96619.00
2022-10-14T20:51:41.209Z,96613.34
2022-10-14T20:54:11.860Z,96624.69
2022-10-14T20:56:40.641Z,96618.66
2022-10-14T20:59:13.258Z,96617.06
2022-10-14T21:01:43.062Z,96617.25
2022-10-14T21:04:12.080Z,96603.06
2022-10-14T21:06:41.206Z,96606.53
2022-10-14T21:09:10.752Z,96599.88
2022-10-14T21:11:39.417Z,96589.34
2022-10-14T21:14:08.026Z,96590.47
2022-10-14T21:16:39.858Z,96596.75
2022-10-14T21:19:11.172Z,96588.09
2022-10-14T21:21:42.814Z,96588.72
2022-10-14T21:24:14.508Z,96584.28
2022-10-14T21:26:42.804Z,96586.50
2022-10-14T21:29:11.757Z,96575.94
2022-10-14T21:31:40.935Z,96567.34
2022-10-14T21:34:12.512Z,96568.75
2022-10-14T21:36:42.043Z,96555.72
2022-10-14T21:39:13.375Z,96553.69
2022-10-14T21:41:43.344Z,96548.59
2022-10-14T21:44:16.358Z,96546.97
2022-10-14T21:46:45.225Z,96541.06
2022-10-14T21:49:15.584Z,96540.16
2022-10-14T21:51:44.223Z,96538.31
2022-10-14T21:54:13.180Z,96538.31
2022-10-14T21:56:41.576Z,96533.16
2022-10-14T21:59:10.561Z,96531.91
2022-10-14T22:01:39.348Z,96530.69
2022-10-14T22:04:08.449Z,96527.47
2022-10-14T22:06:38.752Z,96521.97
2022-10-14T22:09:09.015Z,96520.75
2022-10-14T22:11:40.131Z,96525.06
2022-10-14T22:14:13.373Z,96524.72
2022-10-14T22:16:42.265Z,96524.81
2022-10-14T22:19:13.499Z,96518.53
2022-10-14T22:21:46.189Z,96517.75
2022-10-14T22:24:15.050Z,96518.53
2022-10-14T22:26:43.899Z,96529.50
2022-10-14T22:29:14.830Z,96520.94
2022-10-14T22:31:43.725Z,96526.06
2022-10-14T22:34:14.340Z,96518.97
2022-10-14T22:36:44.927Z,96522.06
2022-10-14T22:39:17.307Z,96520.50
2022-10-14T22:41:46.010Z,96513.38
2022-10-14T22:44:14.301Z,96502.25
2022-10-14T22:46:42.954Z,96498.31
2022-10-14T22:49:11.384Z,96499.06
2022-10-14T22:51:41.313Z,96492.31
2022-10-14T22:54:11.624Z,96491.06
2022-10-14T22:56:40.916Z,96477.69
2022-10-14T22:59:11.297Z,96480.00
2022-10-14T23:01:41.280Z,96483.53
2022-10-14T23:04:10.797Z,96480.34
2022-10-14T23:06:40.302Z,96478.03
2022-10-14T23:09:10.295Z,96472.94
2022-10-14T23:11:39.489Z,96478.44
2022-10-14T23:14:08.225Z,96472.56
2022-10-14T23:16:37.297Z,96465.41
2022-10-14T23:19:05.932Z,96474.44
2022-10-14T23:21:36.261Z,96460.34
2022-10-14T23:24:07.479Z,96467.44
2022-10-14T23:26:37.925Z,96468.59
2022-10-14T23:29:09.828Z,96465.84
2022-10-14T23:31:40.124Z,96463.44
2022-10-14T23:34:13.100Z,96463.88
2022-10-14T23:36:42.404Z,96460.28
2022-10-14T23:39:11.905Z,96456.00
2022-10-14T23:41:41.731Z,96457.97
2022-10-14T23:44:12.101Z,96457.97
2022-10-14T23:46:40.722Z,96453.19
2022-10-14T23:49:24.947Z,96456.34
2022-10-14T23:51:55.230Z,96457.59
2022-10-14T23:54:23.931Z,96456.81
2022-10-14T23:56:53.928Z,96456.72
2022-10-14T23:59:22.642Z,96446.09
